St Pete Beach, Florida
Current Conditions -  °F | °C
As of 7:53 AM on Friday 31 Oct 2014 (Local Time) from KSPG Reporting Station
Scattered Clouds Scattered Clouds  
Wind Chill: 21°   Ceiling: Unl
Heat Index: 21°   Visibility: 10mi
Dew Point: 13°   Wind: 8mph
Humidity: 63%   Direction: 360°N
Pressure: 29.87"   Gusts: NA
Location:  27.7426°N, 82.7481°W
Report Text: KSPG 311153Z 36007KT 10SM SCT100 21/13 A2987 RMK AO2 SLP115 T02060133 10228 20206 53012
Loading
Personal Weather Stations






























Interactive Weather Map
Tropical Storm Tracking
New forecast layout! Learn more

10-Day Weather Forecast

Advertisements
Track Severe Weather on mobile